sensor_id;sensor_type;location;lat;lon;timestamp;temperature;humidity
68439;SHT31;55421;51.600;5.718;2023-02-18T00:01:22;11.98;84.30
68439;SHT31;55421;51.600;5.718;2023-02-18T00:03:50;11.99;84.30
68439;SHT31;55421;51.600;5.718;2023-02-18T00:06:18;11.98;84.31
68439;SHT31;55421;51.600;5.718;2023-02-18T00:08:52;11.97;84.37
68439;SHT31;55421;51.600;5.718;2023-02-18T00:11:21;11.97;84.40
68439;SHT31;55421;51.600;5.718;2023-02-18T00:13:52;11.96;84.40
68439;SHT31;55421;51.600;5.718;2023-02-18T00:16:22;11.97;84.47
68439;SHT31;55421;51.600;5.718;2023-02-18T00:18:55;11.96;84.50
68439;SHT31;55421;51.600;5.718;2023-02-18T00:21:24;11.96;84.50
68439;SHT31;55421;51.600;5.718;2023-02-18T00:23:51;11.96;84.52
68439;SHT31;55421;51.600;5.718;2023-02-18T00:26:18;11.97;84.52
68439;SHT31;55421;51.600;5.718;2023-02-18T00:28:46;11.97;84.50
68439;SHT31;55421;51.600;5.718;2023-02-18T00:31:15;11.97;84.51
68439;SHT31;55421;51.600;5.718;2023-02-18T00:33:48;11.97;84.60
68439;SHT31;55421;51.600;5.718;2023-02-18T00:36:15;11.97;84.59
68439;SHT31;55421;51.600;5.718;2023-02-18T00:38:48;11.98;84.59
68439;SHT31;55421;51.600;5.718;2023-02-18T00:41:18;11.97;84.60
68439;SHT31;55421;51.600;5.718;2023-02-18T00:43:47;11.98;84.60
68439;SHT31;55421;51.600;5.718;2023-02-18T00:46:14;11.98;84.60
68439;SHT31;55421;51.600;5.718;2023-02-18T00:48:41;11.97;84.63
68439;SHT31;55421;51.600;5.718;2023-02-18T00:51:08;11.97;84.66
68439;SHT31;55421;51.600;5.718;2023-02-18T00:53:35;11.97;84.69
68439;SHT31;55421;51.600;5.718;2023-02-18T00:56:03;11.98;84.71
68439;SHT31;55421;51.600;5.718;2023-02-18T00:58:30;11.99;84.71
68439;SHT31;55421;51.600;5.718;2023-02-18T01:00:57;11.99;84.70
68439;SHT31;55421;51.600;5.718;2023-02-18T01:03:23;12.01;84.78
68439;SHT31;55421;51.600;5.718;2023-02-18T01:05:51;12.01;84.81
68439;SHT31;55421;51.600;5.718;2023-02-18T01:08:19;12.01;84.82
68439;SHT31;55421;51.600;5.718;2023-02-18T01:10:48;12.01;84.82
68439;SHT31;55421;51.600;5.718;2023-02-18T01:13:20;12.02;84.88
68439;SHT31;55421;51.600;5.718;2023-02-18T01:15:47;12.03;84.89
68439;SHT31;55421;51.600;5.718;2023-02-18T01:18:13;12.03;84.86
68439;SHT31;55421;51.600;5.718;2023-02-18T01:20:41;12.04;84.88
68439;SHT31;55421;51.600;5.718;2023-02-18T01:23:10;12.04;84.88
68439;SHT31;55421;51.600;5.718;2023-02-18T01:25:39;12.05;84.86
68439;SHT31;55421;51.600;5.718;2023-02-18T01:28:06;12.04;84.86
68439;SHT31;55421;51.600;5.718;2023-02-18T01:30:34;12.04;84.89
68439;SHT31;55421;51.600;5.718;2023-02-18T01:33:01;12.03;84.90
68439;SHT31;55421;51.600;5.718;2023-02-18T01:35:27;12.03;84.90
68439;SHT31;55421;51.600;5.718;2023-02-18T01:37:54;12.02;84.99
68439;SHT31;55421;51.600;5.718;2023-02-18T01:40:22;12.01;85.00
68439;SHT31;55421;51.600;5.718;2023-02-18T01:42:52;12.00;85.07
68439;SHT31;55421;51.600;5.718;2023-02-18T01:50:50;11.96;85.33
68439;SHT31;55421;51.600;5.718;2023-02-18T01:53:25;11.94;85.43
68439;SHT31;55421;51.600;5.718;2023-02-18T01:56:07;11.92;85.55
68439;SHT31;55421;51.600;5.718;2023-02-18T01:58:47;11.89;85.69
68439;SHT31;55421;51.600;5.718;2023-02-18T02:01:15;11.88;85.82
68439;SHT31;55421;51.600;5.718;2023-02-18T02:03:42;11.86;85.91
68439;SHT31;55421;51.600;5.718;2023-02-18T02:06:16;11.84;86.04
68439;SHT31;55421;51.600;5.718;2023-02-18T02:08:46;11.82;86.14
68439;SHT31;55421;51.600;5.718;2023-02-18T02:12:01;11.81;86.25
68439;SHT31;55421;51.600;5.718;2023-02-18T02:14:51;11.79;86.36
68439;SHT31;55421;51.600;5.718;2023-02-18T02:23:56;11.74;86.67
68439;SHT31;55421;51.600;5.718;2023-02-18T02:43:40;11.65;87.30
68439;SHT31;55421;51.600;5.718;2023-02-18T02:49:32;11.63;87.47
68439;SHT31;55421;51.600;5.718;2023-02-18T02:52:32;11.61;87.50
68439;SHT31;55421;51.600;5.718;2023-02-18T02:55:10;11.59;87.51
68439;SHT31;55421;51.600;5.718;2023-02-18T02:57:48;11.59;87.59
68439;SHT31;55421;51.600;5.718;2023-02-18T03:00:19;11.58;87.64
68439;SHT31;55421;51.600;5.718;2023-02-18T03:03:16;11.59;87.70
68439;SHT31;55421;51.600;5.718;2023-02-18T03:05:55;11.60;87.73
68439;SHT31;55421;51.600;5.718;2023-02-18T03:17:30;11.56;88.01
68439;SHT31;55421;51.600;5.718;2023-02-18T03:20:07;11.56;88.05
68439;SHT31;55421;51.600;5.718;2023-02-18T03:22:45;11.56;88.03
68439;SHT31;55421;51.600;5.718;2023-02-18T03:25:16;11.56;88.01
68439;SHT31;55421;51.600;5.718;2023-02-18T03:27:48;11.56;88.05
68439;SHT31;55421;51.600;5.718;2023-02-18T03:30:24;11.54;88.11
68439;SHT31;55421;51.600;5.718;2023-02-18T03:33:16;11.52;88.12
68439;SHT31;55421;51.600;5.718;2023-02-18T03:35:52;11.51;88.19
68439;SHT31;55421;51.600;5.718;2023-02-18T03:38:33;11.52;88.20
68439;SHT31;55421;51.600;5.718;2023-02-18T03:41:05;11.51;88.20
68439;SHT31;55421;51.600;5.718;2023-02-18T03:43:32;11.50;88.24
68439;SHT31;55421;51.600;5.718;2023-02-18T03:45:59;11.49;88.27
68439;SHT31;55421;51.600;5.718;2023-02-18T03:48:28;11.49;88.29
68439;SHT31;55421;51.600;5.718;2023-02-18T03:50:54;11.50;88.30
68439;SHT31;55421;51.600;5.718;2023-02-18T03:53:21;11.49;88.30
68439;SHT31;55421;51.600;5.718;2023-02-18T03:55:48;11.48;88.31
68439;SHT31;55421;51.600;5.718;2023-02-18T03:58:14;11.49;88.39
68439;SHT31;55421;51.600;5.718;2023-02-18T04:00:41;11.48;88.38
68439;SHT31;55421;51.600;5.718;2023-02-18T04:03:07;11.48;88.37
68439;SHT31;55421;51.600;5.718;2023-02-18T04:05:34;11.48;88.40
68439;SHT31;55421;51.600;5.718;2023-02-18T04:08:01;11.48;88.40
68439;SHT31;55421;51.600;5.718;2023-02-18T04:10:28;11.48;88.41
68439;SHT31;55421;51.600;5.718;2023-02-18T04:12:56;11.47;88.42
68439;SHT31;55421;51.600;5.718;2023-02-18T04:15:23;11.46;88.42
68439;SHT31;55421;51.600;5.718;2023-02-18T04:17:49;11.45;88.40
68439;SHT31;55421;51.600;5.718;2023-02-18T04:20:16;11.44;88.40
68439;SHT31;55421;51.600;5.718;2023-02-18T04:22:42;11.45;88.42
68439;SHT31;55421;51.600;5.718;2023-02-18T04:25:09;11.44;88.45
68439;SHT31;55421;51.600;5.718;2023-02-18T04:27:36;11.43;88.43
68439;SHT31;55421;51.600;5.718;2023-02-18T04:30:03;11.43;88.42
68439;SHT31;55421;51.600;5.718;2023-02-18T04:32:33;11.42;88.49
68439;SHT31;55421;51.600;5.718;2023-02-18T04:34:59;11.41;88.52
68439;SHT31;55421;51.600;5.718;2023-02-18T04:37:26;11.40;88.50
68439;SHT31;55421;51.600;5.718;2023-02-18T04:39:52;11.39;88.51
68439;SHT31;55421;51.600;5.718;2023-02-18T04:42:19;11.39;88.50
68439;SHT31;55421;51.600;5.718;2023-02-18T04:44:45;11.38;88.56
68439;SHT31;55421;51.600;5.718;2023-02-18T04:47:11;11.37;88.59
68439;SHT31;55421;51.600;5.718;2023-02-18T04:49:38;11.37;88.59
68439;SHT31;55421;51.600;5.718;2023-02-18T04:52:04;11.35;88.61
68439;SHT31;55421;51.600;5.718;2023-02-18T04:54:31;11.34;88.61
68439;SHT31;55421;51.600;5.718;2023-02-18T04:56:58;11.33;88.65
68439;SHT31;55421;51.600;5.718;2023-02-18T04:59:25;11.31;88.78
68439;SHT31;55421;51.600;5.718;2023-02-18T05:01:51;11.31;88.88
68439;SHT31;55421;51.600;5.718;2023-02-18T05:04:18;11.28;88.84
68439;SHT31;55421;51.600;5.718;2023-02-18T05:06:44;11.27;88.90
68439;SHT31;55421;51.600;5.718;2023-02-18T05:09:11;11.26;88.93
68439;SHT31;55421;51.600;5.718;2023-02-18T05:11:39;11.24;89.00
68439;SHT31;55421;51.600;5.718;2023-02-18T05:14:06;11.24;89.00
68439;SHT31;55421;51.600;5.718;2023-02-18T05:16:34;11.23;89.04
68439;SHT31;55421;51.600;5.718;2023-02-18T05:19:01;11.23;89.15
68439;SHT31;55421;51.600;5.718;2023-02-18T05:21:28;11.22;89.09
68439;SHT31;55421;51.600;5.718;2023-02-18T05:23:54;11.20;89.11
68439;SHT31;55421;51.600;5.718;2023-02-18T05:26:21;11.21;89.12
68439;SHT31;55421;51.600;5.718;2023-02-18T05:28:48;11.20;89.18
68439;SHT31;55421;51.600;5.718;2023-02-18T05:31:15;11.20;89.17
68439;SHT31;55421;51.600;5.718;2023-02-18T05:33:41;11.20;89.17
68439;SHT31;55421;51.600;5.718;2023-02-18T05:36:08;11.20;89.15
68439;SHT31;55421;51.600;5.718;2023-02-18T05:38:35;11.21;89.17
68439;SHT31;55421;51.600;5.718;2023-02-18T05:41:01;11.20;89.18
68439;SHT31;55421;51.600;5.718;2023-02-18T05:43:28;11.19;89.18
68439;SHT31;55421;51.600;5.718;2023-02-18T05:45:54;11.18;89.21
68439;SHT31;55421;51.600;5.718;2023-02-18T05:48:21;11.17;89.20
68439;SHT31;55421;51.600;5.718;2023-02-18T05:50:47;11.17;89.26
68439;SHT31;55421;51.600;5.718;2023-02-18T05:53:14;11.16;89.33
68439;SHT31;55421;51.600;5.718;2023-02-18T05:55:40;11.15;89.30
68439;SHT31;55421;51.600;5.718;2023-02-18T05:58:06;11.14;89.30
68439;SHT31;55421;51.600;5.718;2023-02-18T06:00:33;11.14;89.32
68439;SHT31;55421;51.600;5.718;2023-02-18T06:02:59;11.14;89.39
68439;SHT31;55421;51.600;5.718;2023-02-18T06:05:26;11.14;89.40
68439;SHT31;55421;51.600;5.718;2023-02-18T06:07:52;11.12;89.40
68439;SHT31;55421;51.600;5.718;2023-02-18T06:10:19;11.14;89.43
68439;SHT31;55421;51.600;5.718;2023-02-18T06:12:45;11.15;89.49
68439;SHT31;55421;51.600;5.718;2023-02-18T06:15:12;11.15;89.44
68439;SHT31;55421;51.600;5.718;2023-02-18T06:17:38;11.15;89.46
68439;SHT31;55421;51.600;5.718;2023-02-18T06:20:05;11.14;89.50
68439;SHT31;55421;51.600;5.718;2023-02-18T06:22:32;11.15;89.53
68439;SHT31;55421;51.600;5.718;2023-02-18T06:24:59;11.15;89.53
68439;SHT31;55421;51.600;5.718;2023-02-18T06:27:25;11.17;89.47
68439;SHT31;55421;51.600;5.718;2023-02-18T06:29:52;11.18;89.46
68439;SHT31;55421;51.600;5.718;2023-02-18T06:32:18;11.20;89.44
68439;SHT31;55421;51.600;5.718;2023-02-18T06:34:45;11.22;89.46
68439;SHT31;55421;51.600;5.718;2023-02-18T06:37:11;11.23;89.39
68439;SHT31;55421;51.600;5.718;2023-02-18T06:39:38;11.25;89.30
68439;SHT31;55421;51.600;5.718;2023-02-18T06:42:05;11.25;89.24
68439;SHT31;55421;51.600;5.718;2023-02-18T06:44:31;11.25;89.20
68439;SHT31;55421;51.600;5.718;2023-02-18T06:46:58;11.25;89.18
68439;SHT31;55421;51.600;5.718;2023-02-18T06:49:25;11.26;89.20
68439;SHT31;55421;51.600;5.718;2023-02-18T06:51:51;11.25;89.20
68439;SHT31;55421;51.600;5.718;2023-02-18T06:54:18;11.23;89.15
68439;SHT31;55421;51.600;5.718;2023-02-18T06:56:44;11.21;89.21
68439;SHT31;55421;51.600;5.718;2023-02-18T06:59:11;11.19;89.22
68439;SHT31;55421;51.600;5.718;2023-02-18T07:01:37;11.18;89.20
68439;SHT31;55421;51.600;5.718;2023-02-18T07:04:04;11.17;89.24
68439;SHT31;55421;51.600;5.718;2023-02-18T07:06:30;11.15;89.22
68439;SHT31;55421;51.600;5.718;2023-02-18T07:08:57;11.13;89.22
68439;SHT31;55421;51.600;5.718;2023-02-18T07:11:23;11.13;89.20
68439;SHT31;55421;51.600;5.718;2023-02-18T07:13:51;11.13;89.12
68439;SHT31;55421;51.600;5.718;2023-02-18T07:16:18;11.13;89.04
68439;SHT31;55421;51.600;5.718;2023-02-18T07:18:45;11.13;88.96
68439;SHT31;55421;51.600;5.718;2023-02-18T07:21:11;11.14;88.90
68439;SHT31;55421;51.600;5.718;2023-02-18T07:23:38;11.14;88.84
68439;SHT31;55421;51.600;5.718;2023-02-18T07:28:33;11.17;88.62
68439;SHT31;55421;51.600;5.718;2023-02-18T07:31:00;11.18;88.44
68439;SHT31;55421;51.600;5.718;2023-02-18T07:33:27;11.18;88.24
68439;SHT31;55421;51.600;5.718;2023-02-18T07:35:55;11.18;88.07
68439;SHT31;55421;51.600;5.718;2023-02-18T07:38:24;11.18;87.92
68439;SHT31;55421;51.600;5.718;2023-02-18T07:40:52;11.18;87.76
68439;SHT31;55421;51.600;5.718;2023-02-18T07:43:20;11.19;87.74
68439;SHT31;55421;51.600;5.718;2023-02-18T07:45:46;11.19;87.80
68439;SHT31;55421;51.600;5.718;2023-02-18T07:48:13;11.21;87.84
68439;SHT31;55421;51.600;5.718;2023-02-18T07:50:42;11.20;87.79
68439;SHT31;55421;51.600;5.718;2023-02-18T07:53:11;11.17;87.70
68439;SHT31;55421;51.600;5.718;2023-02-18T07:55:40;11.13;87.66
68439;SHT31;55421;51.600;5.718;2023-02-18T08:00:49;11.07;87.55
68439;SHT31;55421;51.600;5.718;2023-02-18T08:03:16;11.06;87.47
68439;SHT31;55421;51.600;5.718;2023-02-18T08:05:44;11.04;87.38
68439;SHT31;55421;51.600;5.718;2023-02-18T08:08:15;11.04;87.22
68439;SHT31;55421;51.600;5.718;2023-02-18T08:10:48;11.02;87.16
68439;SHT31;55421;51.600;5.718;2023-02-18T08:13:16;11.00;87.02
68439;SHT31;55421;51.600;5.718;2023-02-18T08:15:42;10.99;87.00
68439;SHT31;55421;51.600;5.718;2023-02-18T08:18:14;11.01;86.91
68439;SHT31;55421;51.600;5.718;2023-02-18T08:20:44;11.02;86.83
68439;SHT31;55421;51.600;5.718;2023-02-18T08:23:12;11.05;86.71
68439;SHT31;55421;51.600;5.718;2023-02-18T08:25:43;11.08;86.62
68439;SHT31;55421;51.600;5.718;2023-02-18T08:28:17;11.12;86.55
68439;SHT31;55421;51.600;5.718;2023-02-18T08:30:51;11.16;86.30
68439;SHT31;55421;51.600;5.718;2023-02-18T08:33:20;11.20;85.93
68439;SHT31;55421;51.600;5.718;2023-02-18T08:35:49;11.23;85.80
68439;SHT31;55421;51.600;5.718;2023-02-18T08:38:19;11.28;85.68
68439;SHT31;55421;51.600;5.718;2023-02-18T08:40:47;11.31;85.48
68439;SHT31;55421;51.600;5.718;2023-02-18T08:43:15;11.33;85.18
68439;SHT31;55421;51.600;5.718;2023-02-18T08:45:43;11.33;85.07
68439;SHT31;55421;51.600;5.718;2023-02-18T08:48:10;11.33;84.97
68439;SHT31;55421;51.600;5.718;2023-02-18T08:50:39;11.33;84.69
68439;SHT31;55421;51.600;5.718;2023-02-18T08:53:05;11.32;84.59
68439;SHT31;55421;51.600;5.718;2023-02-18T08:55:32;11.33;84.58
68439;SHT31;55421;51.600;5.718;2023-02-18T08:58:00;11.33;84.42
68439;SHT31;55421;51.600;5.718;2023-02-18T09:00:27;11.33;84.30
68439;SHT31;55421;51.600;5.718;2023-02-18T09:02:53;11.34;84.32
68439;SHT31;55421;51.600;5.718;2023-02-18T09:05:20;11.34;84.08
68439;SHT31;55421;51.600;5.718;2023-02-18T09:07:46;11.34;83.91
68439;SHT31;55421;51.600;5.718;2023-02-18T09:10:12;11.33;83.82
68439;SHT31;55421;51.600;5.718;2023-02-18T09:12:39;11.33;83.76
68439;SHT31;55421;51.600;5.718;2023-02-18T09:15:06;11.33;83.62
68439;SHT31;55421;51.600;5.718;2023-02-18T09:17:33;11.32;83.69
68439;SHT31;55421;51.600;5.718;2023-02-18T09:19:59;11.32;83.73
68439;SHT31;55421;51.600;5.718;2023-02-18T09:22:26;11.32;83.67
68439;SHT31;55421;51.600;5.718;2023-02-18T09:24:53;11.32;83.55
68439;SHT31;55421;51.600;5.718;2023-02-18T09:27:19;11.29;83.39
68439;SHT31;55421;51.600;5.718;2023-02-18T09:29:47;11.29;83.54
68439;SHT31;55421;51.600;5.718;2023-02-18T09:32:14;11.28;83.61
68439;SHT31;55421;51.600;5.718;2023-02-18T09:34:43;11.27;83.63
68439;SHT31;55421;51.600;5.718;2023-02-18T09:37:10;11.26;83.70
68439;SHT31;55421;51.600;5.718;2023-02-18T09:39:37;11.23;83.70
68439;SHT31;55421;51.600;5.718;2023-02-18T09:42:04;11.18;83.61
68439;SHT31;55421;51.600;5.718;2023-02-18T09:44:41;11.15;83.67
68439;SHT31;55421;51.600;5.718;2023-02-18T09:47:27;11.14;83.70
68439;SHT31;55421;51.600;5.718;2023-02-18T09:50:20;11.13;83.71
68439;SHT31;55421;51.600;5.718;2023-02-18T09:52:52;11.12;83.71
68439;SHT31;55421;51.600;5.718;2023-02-18T09:55:27;11.12;83.59
68439;SHT31;55421;51.600;5.718;2023-02-18T09:58:13;11.12;83.43
68439;SHT31;55421;51.600;5.718;2023-02-18T10:00:45;11.12;83.30
68439;SHT31;55421;51.600;5.718;2023-02-18T10:03:17;11.16;83.37
68439;SHT31;55421;51.600;5.718;2023-02-18T10:05:55;11.16;83.20
68439;SHT31;55421;51.600;5.718;2023-02-18T10:08:32;11.17;82.97
68439;SHT31;55421;51.600;5.718;2023-02-18T10:11:03;11.17;82.90
68439;SHT31;55421;51.600;5.718;2023-02-18T10:13:37;11.18;82.76
68439;SHT31;55421;51.600;5.718;2023-02-18T10:16:04;11.19;82.72
68439;SHT31;55421;51.600;5.718;2023-02-18T10:18:32;11.22;82.38
68439;SHT31;55421;51.600;5.718;2023-02-18T10:21:10;11.23;82.24
68439;SHT31;55421;51.600;5.718;2023-02-18T10:23:50;11.24;82.20
68439;SHT31;55421;51.600;5.718;2023-02-18T10:26:26;11.27;82.13
68439;SHT31;55421;51.600;5.718;2023-02-18T10:28:56;11.27;81.93
68439;SHT31;55421;51.600;5.718;2023-02-18T10:31:28;11.27;81.98
68439;SHT31;55421;51.600;5.718;2023-02-18T10:48:26;11.33;81.96
68439;SHT31;55421;51.600;5.718;2023-02-18T10:51:14;11.33;82.10
68439;SHT31;55421;51.600;5.718;2023-02-18T10:53:47;11.32;82.23
68439;SHT31;55421;51.600;5.718;2023-02-18T10:59:20;11.32;82.75
68439;SHT31;55421;51.600;5.718;2023-02-18T11:01:54;11.36;82.94
68439;SHT31;55421;51.600;5.718;2023-02-18T11:04:35;11.40;83.05
68439;SHT31;55421;51.600;5.718;2023-02-18T11:07:05;11.42;83.23
68439;SHT31;55421;51.600;5.718;2023-02-18T11:09:53;11.42;83.54
68439;SHT31;55421;51.600;5.718;2023-02-18T11:15:16;11.43;84.01
68439;SHT31;55421;51.600;5.718;2023-02-18T11:18:36;11.40;84.25
68439;SHT31;55421;51.600;5.718;2023-02-18T11:20:55;11.34;84.45
68439;SHT31;55421;51.600;5.718;2023-02-18T11:23:55;11.31;84.63
68439;SHT31;55421;51.600;5.718;2023-02-18T11:26:31;11.32;84.78
68439;SHT31;55421;51.600;5.718;2023-02-18T11:29:02;11.34;84.88
68439;SHT31;55421;51.600;5.718;2023-02-18T11:31:46;11.34;85.00
68439;SHT31;55421;51.600;5.718;2023-02-18T11:34:19;11.33;85.16
68439;SHT31;55421;51.600;5.718;2023-02-18T11:36:49;11.35;85.35
68439;SHT31;55421;51.600;5.718;2023-02-18T11:39:21;11.37;85.44
68439;SHT31;55421;51.600;5.718;2023-02-18T11:47:19;11.40;85.82
68439;SHT31;55421;51.600;5.718;2023-02-18T11:49:59;11.40;85.93
68439;SHT31;55421;51.600;5.718;2023-02-18T11:52:44;11.42;86.06
68439;SHT31;55421;51.600;5.718;2023-02-18T11:55:15;11.45;86.18
68439;SHT31;55421;51.600;5.718;2023-02-18T11:57:50;11.45;86.21
68439;SHT31;55421;51.600;5.718;2023-02-18T12:00:41;11.43;86.31
68439;SHT31;55421;51.600;5.718;2023-02-18T12:06:05;11.45;86.46
68439;SHT31;55421;51.600;5.718;2023-02-18T12:08:53;11.48;86.50
68439;SHT31;55421;51.600;5.718;2023-02-18T12:11:39;11.52;86.59
68439;SHT31;55421;51.600;5.718;2023-02-18T12:14:16;11.53;86.63
68439;SHT31;55421;51.600;5.718;2023-02-18T12:32:16;12.03;85.96
68439;SHT31;55421;51.600;5.718;2023-02-18T12:37:49;12.06;85.41
68439;SHT31;55421;51.600;5.718;2023-02-18T12:40:49;12.06;85.24
68439;SHT31;55421;51.600;5.718;2023-02-18T12:46:40;12.11;85.00
68439;SHT31;55421;51.600;5.718;2023-02-18T13:04:24;12.27;83.96
68439;SHT31;55421;51.600;5.718;2023-02-18T13:07:16;12.29;84.07
68439;SHT31;55421;51.600;5.718;2023-02-18T13:13:15;12.37;83.76
68439;SHT31;55421;51.600;5.718;2023-02-18T13:16:00;12.40;83.75
68439;SHT31;55421;51.600;5.718;2023-02-18T13:18:38;12.38;83.39
68439;SHT31;55421;51.600;5.718;2023-02-18T13:21:12;12.40;83.20
68439;SHT31;55421;51.600;5.718;2023-02-18T13:23:58;12.44;83.11
68439;SHT31;55421;51.600;5.718;2023-02-18T13:26:32;12.48;83.04
68439;SHT31;55421;51.600;5.718;2023-02-18T13:29:18;12.48;83.08
68439;SHT31;55421;51.600;5.718;2023-02-18T13:32:07;12.48;83.00
68439;SHT31;55421;51.600;5.718;2023-02-18T13:34:53;12.48;83.04
68439;SHT31;55421;51.600;5.718;2023-02-18T13:40:30;12.55;82.81
68439;SHT31;55421;51.600;5.718;2023-02-18T13:43:17;12.61;82.87
68439;SHT31;55421;51.600;5.718;2023-02-18T13:48:50;12.72;82.59
68439;SHT31;55421;51.600;5.718;2023-02-18T13:54:07;12.74;82.51
68439;SHT31;55421;51.600;5.718;2023-02-18T13:59:42;12.72;82.17
68439;SHT31;55421;51.600;5.718;2023-02-18T14:09:59;12.62;82.26
68439;SHT31;55421;51.600;5.718;2023-02-18T14:12:40;12.63;82.29
68439;SHT31;55421;51.600;5.718;2023-02-18T14:25:51;12.67;82.00
68439;SHT31;55421;51.600;5.718;2023-02-18T14:33:48;12.68;82.00
68439;SHT31;55421;51.600;5.718;2023-02-18T14:36:39;12.71;81.94
68439;SHT31;55421;51.600;5.718;2023-02-18T14:39:37;12.73;81.92
68439;SHT31;55421;51.600;5.718;2023-02-18T14:52:05;12.90;81.65
68439;SHT31;55421;51.600;5.718;2023-02-18T14:55:01;12.88;81.47
68439;SHT31;55421;51.600;5.718;2023-02-18T14:57:38;12.90;81.60
68439;SHT31;55421;51.600;5.718;2023-02-18T15:00:13;12.92;81.42
68439;SHT31;55421;51.600;5.718;2023-02-18T15:02:46;12.92;81.24
68439;SHT31;55421;51.600;5.718;2023-02-18T15:05:20;12.91;81.15
68439;SHT31;55421;51.600;5.718;2023-02-18T15:07:55;12.90;81.16
68439;SHT31;55421;51.600;5.718;2023-02-18T15:10:30;12.91;81.16
68439;SHT31;55421;51.600;5.718;2023-02-18T15:13:22;12.91;80.90
68439;SHT31;55421;51.600;5.718;2023-02-18T15:15:58;12.93;80.62
68439;SHT31;55421;51.600;5.718;2023-02-18T15:18:32;12.92;80.62
68439;SHT31;55421;51.600;5.718;2023-02-18T15:21:01;12.92;80.68
68439;SHT31;55421;51.600;5.718;2023-02-18T15:23:33;12.93;80.64
68439;SHT31;55421;51.600;5.718;2023-02-18T15:26:24;12.92;80.38
68439;SHT31;55421;51.600;5.718;2023-02-18T15:28:58;12.91;80.49
68439;SHT31;55421;51.600;5.718;2023-02-18T15:31:27;12.91;80.36
68439;SHT31;55421;51.600;5.718;2023-02-18T15:34:00;12.91;80.20
68439;SHT31;55421;51.600;5.718;2023-02-18T15:36:27;12.91;80.16
68439;SHT31;55421;51.600;5.718;2023-02-18T15:38:55;12.90;80.14
68439;SHT31;55421;51.600;5.718;2023-02-18T15:41:22;12.91;80.33
68439;SHT31;55421;51.600;5.718;2023-02-18T15:43:53;12.88;80.47
68439;SHT31;55421;51.600;5.718;2023-02-18T15:46:25;12.86;80.52
68439;SHT31;55421;51.600;5.718;2023-02-18T15:48:53;12.85;80.51
68439;SHT31;55421;51.600;5.718;2023-02-18T15:51:24;12.84;80.54
68439;SHT31;55421;51.600;5.718;2023-02-18T15:53:55;12.84;80.54
68439;SHT31;55421;51.600;5.718;2023-02-18T15:56:38;12.81;80.60
68439;SHT31;55421;51.600;5.718;2023-02-18T15:59:15;12.77;80.66
68439;SHT31;55421;51.600;5.718;2023-02-18T16:01:55;12.75;80.83
68439;SHT31;55421;51.600;5.718;2023-02-18T16:04:54;12.73;80.86
68439;SHT31;55421;51.600;5.718;2023-02-18T16:07:26;12.74;80.84
68439;SHT31;55421;51.600;5.718;2023-02-18T16:12:49;12.69;80.81
68439;SHT31;55421;51.600;5.718;2023-02-18T16:15:29;12.66;80.89
68439;SHT31;55421;51.600;5.718;2023-02-18T16:21:04;12.67;80.95
68439;SHT31;55421;51.600;5.718;2023-02-18T16:23:55;12.65;81.00
68439;SHT31;55421;51.600;5.718;2023-02-18T16:26:31;12.63;81.03
68439;SHT31;55421;51.600;5.718;2023-02-18T16:29:14;12.62;81.17
68439;SHT31;55421;51.600;5.718;2023-02-18T16:31:50;12.63;81.17
68439;SHT31;55421;51.600;5.718;2023-02-18T16:34:17;12.61;81.15
68439;SHT31;55421;51.600;5.718;2023-02-18T16:36:44;12.58;81.12
68439;SHT31;55421;51.600;5.718;2023-02-18T16:39:30;12.56;81.21
68439;SHT31;55421;51.600;5.718;2023-02-18T16:41:59;12.52;81.20
68439;SHT31;55421;51.600;5.718;2023-02-18T16:44:26;12.51;81.14
68439;SHT31;55421;51.600;5.718;2023-02-18T16:46:53;12.50;81.14
68439;SHT31;55421;51.600;5.718;2023-02-18T16:49:19;12.48;81.24
68439;SHT31;55421;51.600;5.718;2023-02-18T16:51:46;12.45;81.33
68439;SHT31;55421;51.600;5.718;2023-02-18T16:54:14;12.43;81.46
68439;SHT31;55421;51.600;5.718;2023-02-18T16:56:41;12.44;81.58
68439;SHT31;55421;51.600;5.718;2023-02-18T16:59:07;12.44;81.60
68439;SHT31;55421;51.600;5.718;2023-02-18T17:01:37;12.46;81.66
68439;SHT31;55421;51.600;5.718;2023-02-18T17:04:14;12.45;81.80
68439;SHT31;55421;51.600;5.718;2023-02-18T17:06:43;12.44;81.99
68439;SHT31;55421;51.600;5.718;2023-02-18T17:09:12;12.45;82.12
68439;SHT31;55421;51.600;5.718;2023-02-18T17:11:43;12.45;82.24
68439;SHT31;55421;51.600;5.718;2023-02-18T17:14:15;12.45;82.37
68439;SHT31;55421;51.600;5.718;2023-02-18T17:16:44;12.42;82.50
68439;SHT31;55421;51.600;5.718;2023-02-18T17:19:14;12.39;82.65
68439;SHT31;55421;51.600;5.718;2023-02-18T17:21:41;12.37;82.75
68439;SHT31;55421;51.600;5.718;2023-02-18T17:24:12;12.37;82.86
68439;SHT31;55421;51.600;5.718;2023-02-18T17:26:44;12.34;82.95
68439;SHT31;55421;51.600;5.718;2023-02-18T17:29:10;12.32;83.06
68439;SHT31;55421;51.600;5.718;2023-02-18T17:31:42;12.27;83.19
68439;SHT31;55421;51.600;5.718;2023-02-18T17:34:18;12.25;83.33
68439;SHT31;55421;51.600;5.718;2023-02-18T17:36:51;12.24;83.42
68439;SHT31;55421;51.600;5.718;2023-02-18T17:39:18;12.22;83.58
68439;SHT31;55421;51.600;5.718;2023-02-18T17:41:46;12.20;83.79
68439;SHT31;55421;51.600;5.718;2023-02-18T17:44:17;12.16;84.03
68439;SHT31;55421;51.600;5.718;2023-02-18T17:46:47;12.11;84.24
68439;SHT31;55421;51.600;5.718;2023-02-18T17:49:17;12.09;84.40
68439;SHT31;55421;51.600;5.718;2023-02-18T17:51:44;12.06;84.59
68439;SHT31;55421;51.600;5.718;2023-02-18T17:54:11;12.03;84.74
68439;SHT31;55421;51.600;5.718;2023-02-18T17:56:41;11.99;84.89
68439;SHT31;55421;51.600;5.718;2023-02-18T17:59:09;11.96;85.05
68439;SHT31;55421;51.600;5.718;2023-02-18T18:01:36;11.92;85.27
68439;SHT31;55421;51.600;5.718;2023-02-18T18:04:02;11.90;85.40
68439;SHT31;55421;51.600;5.718;2023-02-18T18:06:29;11.89;85.49
68439;SHT31;55421;51.600;5.718;2023-02-18T18:08:57;11.88;85.55
68439;SHT31;55421;51.600;5.718;2023-02-18T18:11:23;11.86;85.66
68439;SHT31;55421;51.600;5.718;2023-02-18T18:13:51;11.84;85.76
68439;SHT31;55421;51.600;5.718;2023-02-18T18:16:18;11.82;85.82
68439;SHT31;55421;51.600;5.718;2023-02-18T18:18:45;11.81;85.89
68439;SHT31;55421;51.600;5.718;2023-02-18T18:21:46;11.82;85.91
68439;SHT31;55421;51.600;5.718;2023-02-18T18:24:05;11.84;85.99
68439;SHT31;55421;51.600;5.718;2023-02-18T18:26:32;11.85;86.00
68439;SHT31;55421;51.600;5.718;2023-02-18T18:28:58;11.83;86.05
68439;SHT31;55421;51.600;5.718;2023-02-18T18:31:25;11.82;86.08
68439;SHT31;55421;51.600;5.718;2023-02-18T18:33:51;11.79;86.11
68439;SHT31;55421;51.600;5.718;2023-02-18T18:36:18;11.79;86.17
68439;SHT31;55421;51.600;5.718;2023-02-18T18:38:48;11.79;86.14
68439;SHT31;55421;51.600;5.718;2023-02-18T18:41:16;11.79;86.20
68439;SHT31;55421;51.600;5.718;2023-02-18T18:43:46;11.78;86.19